createdAt,value
2018-05-01T00:01:22.490Z,98091.07
2018-05-01T00:03:49.979Z,98088.87
2018-05-01T00:06:17.434Z,98088.95
2018-05-01T00:08:44.915Z,98091.12
2018-05-01T00:11:12.394Z,98098.23
2018-05-01T00:13:39.882Z,98090.91
2018-05-01T00:16:07.337Z,98094.59
2018-05-01T00:18:34.834Z,98096.98
2018-05-01T00:21:02.294Z,98097.77
2018-05-01T00:23:29.774Z,98092.75
2018-05-01T00:25:57.238Z,98098.86
2018-05-01T00:28:24.714Z,98093.46
2018-05-01T00:30:52.170Z,98096.47
2018-05-01T00:33:19.664Z,98092.33
2018-05-01T00:35:47.946Z,98092.74
2018-05-01T00:38:16.442Z,98085.66
2018-05-01T00:40:43.895Z,98092.61
2018-05-01T00:43:11.647Z,98097.99
2018-05-01T00:45:39.107Z,98094.89
2018-05-01T00:48:06.590Z,98099.28
2018-05-01T00:50:34.050Z,98100.19
2018-05-01T00:53:01.531Z,98100.28
2018-05-01T00:55:29.010Z,98094.94
2018-05-01T00:57:56.465Z,98091.48
2018-05-01T01:00:23.946Z,98091.91
2018-05-01T01:02:51.401Z,98092.69
2018-05-01T01:05:18.884Z,98092.48
2018-05-01T01:07:46.337Z,98097.45
2018-05-01T01:10:13.817Z,98097.45
2018-05-01T01:12:41.274Z,98103.39
2018-05-01T01:15:08.763Z,98101.22
2018-05-01T01:17:36.217Z,98100.64
2018-05-01T01:20:03.693Z,98100.09
2018-05-01T01:22:31.180Z,98094.16
2018-05-01T01:24:58.697Z,98100.49
2018-05-01T01:27:26.154Z,98102.16
2018-05-01T01:29:53.633Z,98107.17
2018-05-01T01:32:21.095Z,98109.64
2018-05-01T01:34:48.782Z,98110.48
2018-05-01T01:37:15.703Z,98112.66
2018-05-01T01:39:42.642Z,98110.55
2018-05-01T01:42:09.574Z,98119.00
2018-05-01T01:44:36.514Z,98126.03
2018-05-01T01:47:03.438Z,98122.59
2018-05-01T01:49:30.378Z,98123.22
2018-05-01T01:51:57.297Z,98122.22
2018-05-01T01:54:24.234Z,98120.55
2018-05-01T01:56:51.162Z,98128.36
2018-05-01T01:59:18.105Z,98125.47
2018-05-01T02:01:45.027Z,98132.86
2018-05-01T02:04:11.969Z,98127.08
2018-05-01T02:06:38.887Z,98135.61
2018-05-01T02:09:05.830Z,98130.80
2018-05-01T02:11:32.770Z,98122.14
2018-05-01T02:13:59.714Z,98126.06
2018-05-01T02:16:26.633Z,98127.55
2018-05-01T02:18:53.570Z,98124.38
2018-05-01T02:21:20.494Z,98126.22
2018-05-01T02:23:47.410Z,98123.61
2018-05-01T02:26:15.322Z,98124.79
2018-05-01T02:28:42.280Z,98128.36
2018-05-01T02:31:09.234Z,98121.95
2018-05-01T02:33:36.159Z,98123.87
2018-05-01T02:36:03.115Z,98124.34
2018-05-01T02:38:30.043Z,98129.22
2018-05-01T02:40:56.983Z,98123.17
2018-05-01T02:43:23.930Z,98122.45
2018-05-01T02:45:50.875Z,98130.39
2018-05-01T02:48:17.803Z,98132.65
2018-05-01T02:50:44.769Z,98138.50
2018-05-01T02:53:11.687Z,98142.03
2018-05-01T02:55:38.655Z,98147.94
2018-05-01T02:58:05.578Z,98143.16
2018-05-01T03:00:32.518Z,98145.63
2018-05-01T03:02:59.434Z,98150.91
2018-05-01T03:05:26.379Z,98140.69
2018-05-01T03:07:53.300Z,98142.10
2018-05-01T03:10:20.247Z,98136.76
2018-05-01T03:12:47.172Z,98132.11
2018-05-01T03:15:14.138Z,98122.67
2018-05-01T03:17:41.054Z,98131.66
2018-05-01T03:20:07.994Z,98132.99
2018-05-01T03:22:34.906Z,98131.52
2018-05-01T03:25:01.858Z,98134.61
2018-05-01T03:27:28.774Z,98130.31
2018-05-01T03:29:55.714Z,98130.36
2018-05-01T03:32:22.638Z,98131.23
2018-05-01T03:34:49.596Z,98130.52
2018-05-01T03:37:16.520Z,98138.95
2018-05-01T03:39:43.463Z,98129.66
2018-05-01T03:42:10.393Z,98134.16
2018-05-01T03:44:37.341Z,98141.95
2018-05-01T03:47:04.258Z,98142.60
2018-05-01T03:49:31.178Z,98148.41
2018-05-01T03:51:58.114Z,98151.88
2018-05-01T03:54:25.051Z,98152.88
2018-05-01T03:56:51.999Z,98157.92
2018-05-01T03:59:18.926Z,98163.11
2018-05-01T04:01:45.867Z,98168.31
2018-05-01T04:04:12.963Z,98175.69
2018-05-01T04:06:39.902Z,98179.81
2018-05-01T04:09:06.818Z,98185.31
2018-05-01T04:11:33.762Z,98183.78
2018-05-01T04:14:00.698Z,98189.17
2018-05-01T04:16:27.644Z,98191.84
2018-05-01T04:18:54.561Z,98192.63
2018-05-01T04:21:21.497Z,98189.85
2018-05-01T04:23:48.418Z,98198.44
2018-05-01T04:26:15.358Z,98204.28
2018-05-01T04:28:42.280Z,98204.70
2018-05-01T04:31:09.246Z,98205.81
2018-05-01T04:33:36.178Z,98198.11
2018-05-01T04:36:03.142Z,98199.09
2018-05-01T04:38:30.063Z,98199.37
2018-05-01T04:40:57.019Z,98206.39
2018-05-01T04:43:23.967Z,98205.25
2018-05-01T04:45:50.914Z,98218.72
2018-05-01T04:48:17.832Z,98231.55
2018-05-01T04:50:44.769Z,98235.09
2018-05-01T04:53:11.699Z,98237.31
2018-05-01T04:55:38.641Z,98236.62
2018-05-01T04:58:05.554Z,98234.83
2018-05-01T05:00:32.494Z,98232.04
2018-05-01T05:02:59.433Z,98239.40
2018-05-01T05:05:26.371Z,98255.23
2018-05-01T05:07:53.294Z,98252.29
2018-05-01T05:10:20.236Z,98257.09
2018-05-01T05:12:47.178Z,98254.84
2018-05-01T05:15:14.094Z,98252.73
2018-05-01T05:17:42.942Z,98262.53
2018-05-01T05:20:10.782Z,98257.97
2018-05-01T05:22:37.727Z,98259.98
2018-05-01T05:25:04.643Z,98258.08
2018-05-01T05:27:31.592Z,98264.73
2018-05-01T05:29:58.515Z,98271.80
2018-05-01T05:32:25.450Z,98274.72
2018-05-01T05:34:52.382Z,98277.33
2018-05-01T05:37:19.318Z,98277.56
2018-05-01T05:39:46.238Z,98272.29
2018-05-01T05:42:13.226Z,98290.77
2018-05-01T05:44:40.142Z,98287.80
2018-05-01T05:47:07.082Z,98283.52
2018-05-01T05:49:34.005Z,98295.48
2018-05-01T05:52:00.946Z,98300.90
2018-05-01T05:54:27.923Z,98306.70
2018-05-01T05:56:54.813Z,98305.55
2018-05-01T05:59:21.730Z,98314.52
2018-05-01T06:01:48.666Z,98315.06
2018-05-01T06:04:15.583Z,98323.60
2018-05-01T06:06:42.526Z,98324.77
2018-05-01T06:09:09.439Z,98320.95
2018-05-01T06:11:36.382Z,98321.59
2018-05-01T06:14:03.298Z,98330.64
2018-05-01T06:16:30.252Z,98332.74
2018-05-01T06:18:57.170Z,98332.14
2018-05-01T06:21:24.106Z,98344.80
2018-05-01T06:23:51.023Z,98351.73
2018-05-01T06:26:17.966Z,98353.74
2018-05-01T06:28:44.886Z,98359.39
2018-05-01T06:31:11.866Z,98356.66
2018-05-01T06:33:39.794Z,98362.91
2018-05-01T06:36:06.729Z,98362.19
2018-05-01T06:38:33.674Z,98362.11
2018-05-01T06:41:00.599Z,98361.62
2018-05-01T06:43:27.589Z,98368.32
2018-05-01T06:45:54.547Z,98369.37
2018-05-01T06:48:21.499Z,98366.05
2018-05-01T06:50:48.506Z,98362.42
2018-05-01T06:53:15.390Z,98375.17
2018-05-01T06:55:42.314Z,98370.39
2018-05-01T06:58:09.264Z,98369.97
2018-05-01T07:00:36.209Z,98378.92
2018-05-01T07:03:03.155Z,98373.52
2018-05-01T07:05:30.094Z,98370.22
2018-05-01T07:07:57.054Z,98378.88
2018-05-01T07:10:24.079Z,98384.95
2018-05-01T07:12:50.939Z,98386.28
2018-05-01T07:15:17.863Z,98376.00
2018-05-01T07:17:44.811Z,98366.98
2018-05-01T07:20:11.735Z,98375.41
2018-05-01T07:22:38.692Z,98371.64
2018-05-01T07:25:05.605Z,98375.37
2018-05-01T07:27:32.579Z,98373.78
2018-05-01T07:29:59.486Z,98376.52
2018-05-01T07:32:27.434Z,98366.43
2018-05-01T07:34:54.358Z,98364.94
2018-05-01T07:37:21.309Z,98364.83
2018-05-01T07:39:48.241Z,98367.28
2018-05-01T07:42:15.179Z,98368.16
2018-05-01T07:44:42.128Z,98371.46
2018-05-01T07:47:09.075Z,98372.50
2018-05-01T07:49:35.994Z,98380.11
2018-05-01T07:52:02.940Z,98384.55
2018-05-01T07:54:29.861Z,98398.73
2018-05-01T07:56:56.802Z,98400.83
2018-05-01T07:59:23.732Z,98407.02
2018-05-01T08:01:50.671Z,98407.67
2018-05-01T08:04:17.614Z,98408.59
2018-05-01T08:06:44.530Z,98416.33
2018-05-01T08:09:11.497Z,98419.64
2018-05-01T08:11:38.488Z,98418.84
2018-05-01T08:14:05.451Z,98418.44
2018-05-01T08:16:32.401Z,98424.36
2018-05-01T08:18:59.347Z,98416.59
2018-05-01T08:21:26.265Z,98416.03
2018-05-01T08:23:53.207Z,98413.06
2018-05-01T08:26:20.379Z,98419.25
2018-05-01T08:28:47.452Z,98417.66
2018-05-01T08:31:14.382Z,98427.31
2018-05-01T08:33:41.329Z,98429.00
2018-05-01T08:36:08.247Z,98436.73
2018-05-01T08:38:35.209Z,98425.56
2018-05-01T08:41:02.154Z,98423.23
2018-05-01T08:43:29.102Z,98424.09
2018-05-01T08:45:56.017Z,98421.67
2018-05-01T08:48:22.958Z,98421.17
2018-05-01T08:50:49.883Z,98414.66
2018-05-01T08:53:16.912Z,98412.27
2018-05-01T08:55:43.862Z,98415.80
2018-05-01T08:58:10.868Z,98420.74
2018-05-01T09:00:37.807Z,98418.55
2018-05-01T09:03:04.757Z,98430.25
2018-05-01T09:05:31.693Z,98420.56
2018-05-01T09:07:58.634Z,98431.37
2018-05-01T09:10:25.717Z,98435.34
2018-05-01T09:12:52.671Z,98442.51
2018-05-01T09:15:19.598Z,98435.89
2018-05-01T09:17:46.635Z,98437.03
2018-05-01T09:20:13.646Z,98451.50
2018-05-01T09:22:40.581Z,98447.87
2018-05-01T09:25:07.540Z,98443.31
2018-05-01T09:27:34.491Z,98434.28
2018-05-01T09:30:01.480Z,98432.09
2018-05-01T09:32:28.407Z,98431.22
2018-05-01T09:34:55.355Z,98418.23
2018-05-01T09:37:22.286Z,98421.88
2018-05-01T09:39:49.560Z,98413.58
2018-05-01T09:42:16.525Z,98415.92
2018-05-01T09:44:43.501Z,98406.63
2018-05-01T09:47:10.474Z,98404.12
2018-05-01T09:49:37.420Z,98407.16
2018-05-01T09:52:04.378Z,98404.04
2018-05-01T09:54:31.916Z,98405.68
2018-05-01T09:56:59.410Z,98399.80
2018-05-01T09:59:26.911Z,98395.56
2018-05-01T10:01:54.867Z,98390.15
2018-05-01T10:04:22.423Z,98384.71
2018-05-01T10:06:49.902Z,98382.73
2018-05-01T10:09:17.402Z,98376.83
2018-05-01T10:11:44.874Z,98376.16
2018-05-01T10:14:12.371Z,98374.47
2018-05-01T10:16:39.874Z,98368.89
2018-05-01T10:19:07.382Z,98372.55
2018-05-01T10:21:34.913Z,98366.95
2018-05-01T10:24:02.493Z,98361.22
2018-05-01T10:26:29.961Z,98373.98
2018-05-01T10:28:57.467Z,98372.52
2018-05-01T10:31:24.969Z,98383.47
2018-05-01T10:33:52.471Z,98374.95
2018-05-01T10:36:19.975Z,98376.98
2018-05-01T10:38:47.505Z,98372.91
2018-05-01T10:41:14.957Z,98368.84
2018-05-01T10:43:42.499Z,98361.08
2018-05-01T10:46:09.954Z,98364.38
2018-05-01T10:48:37.448Z,98364.09
2018-05-01T10:51:04.950Z,98380.06
2018-05-01T10:53:32.439Z,98383.83
2018-05-01T10:55:59.945Z,98378.10
2018-05-01T10:58:27.421Z,98380.59
2018-05-01T11:00:54.930Z,98385.00
2018-05-01T11:03:22.392Z,98388.33
2018-05-01T11:05:49.911Z,98403.34
2018-05-01T11:08:17.371Z,98403.13
2018-05-01T11:10:44.859Z,98402.57
2018-05-01T11:13:12.389Z,98395.11
2018-05-01T11:15:39.870Z,98377.77
2018-05-01T11:18:07.351Z,98371.36
2018-05-01T11:20:34.842Z,98371.89
2018-05-01T11:23:02.306Z,98369.20
2018-05-01T11:25:29.786Z,98376.38
2018-05-01T11:27:57.271Z,98371.92
2018-05-01T11:30:25.682Z,98370.39
2018-05-01T11:32:53.299Z,98363.90
2018-05-01T11:35:20.820Z,98364.88
2018-05-01T11:37:48.318Z,98364.17
2018-05-01T11:40:15.838Z,98368.34
2018-05-01T11:42:43.363Z,98370.56
2018-05-01T11:45:10.855Z,98367.77
2018-05-01T11:47:38.455Z,98364.25
2018-05-01T11:50:05.974Z,98363.51
2018-05-01T11:52:33.483Z,98359.66
2018-05-01T11:55:01.011Z,98359.73
2018-05-01T11:57:28.487Z,98362.37
2018-05-01T11:59:56.005Z,98358.80
2018-05-01T12:02:23.475Z,98353.78
2018-05-01T12:04:50.966Z,98346.36
2018-05-01T12:07:18.446Z,98345.05
2018-05-01T12:09:45.975Z,98346.26
2018-05-01T12:12:13.461Z,98351.35
2018-05-01T12:14:40.955Z,98352.81
2018-05-01T12:17:08.427Z,98347.69
2018-05-01T12:19:36.423Z,98341.35
2018-05-01T12:22:03.903Z,98345.48
2018-05-01T12:24:31.389Z,98333.16
2018-05-01T12:26:58.882Z,98329.64
2018-05-01T12:29:26.765Z,98325.16
2018-05-01T12:31:54.291Z,98329.30
2018-05-01T12:34:21.881Z,98332.44
2018-05-01T12:36:49.440Z,98325.91
2018-05-01T12:39:16.895Z,98323.77
2018-05-01T12:41:44.378Z,98328.04
2018-05-01T12:44:11.842Z,98332.08
2018-05-01T12:46:39.331Z,98330.46
2018-05-01T12:49:06.826Z,98336.39
2018-05-01T12:51:34.313Z,98327.48
2018-05-01T12:54:01.898Z,98326.88
2018-05-01T12:56:29.457Z,98340.16
2018-05-01T12:58:56.943Z,98350.06
2018-05-01T13:01:24.429Z,98341.61
2018-05-01T13:03:51.891Z,98335.90
2018-05-01T13:06:19.375Z,98331.34
2018-05-01T13:08:46.845Z,98326.47
2018-05-01T13:11:14.330Z,98319.05
2018-05-01T13:13:41.893Z,98306.88
2018-05-01T13:16:09.331Z,98300.50
2018-05-01T13:18:36.795Z,98300.17
2018-05-01T13:21:04.282Z,98299.11
2018-05-01T13:23:31.741Z,98304.37
2018-05-01T13:25:59.253Z,98306.59
2018-05-01T13:28:26.747Z,98295.80
2018-05-01T13:30:54.238Z,98303.16
2018-05-01T13:33:21.869Z,98286.68
2018-05-01T13:35:49.394Z,98280.48
2018-05-01T13:38:16.896Z,98282.83
2018-05-01T13:40:44.455Z,98275.76
2018-05-01T13:43:12.203Z,98267.77
2018-05-01T13:45:39.687Z,98263.19
2018-05-01T13:48:07.241Z,98259.14
2018-05-01T13:50:34.818Z,98256.83
2018-05-01T13:53:02.290Z,98252.82
2018-05-01T13:55:29.757Z,98248.33
2018-05-01T13:57:57.251Z,98237.16
2018-05-01T14:00:24.725Z,98233.09
2018-05-01T14:02:52.220Z,98239.47
2018-05-01T14:05:19.687Z,98233.06
2018-05-01T14:07:47.171Z,98237.91
2018-05-01T14:10:14.629Z,98232.80
2018-05-01T14:12:42.139Z,98226.80
2018-05-01T14:15:09.632Z,98227.66
2018-05-01T14:17:37.130Z,98224.17
2018-05-01T14:20:04.586Z,98231.94
2018-05-01T14:22:32.079Z,98226.81
2018-05-01T14:25:00.578Z,98228.66
2018-05-01T14:27:28.226Z,98226.98
2018-05-01T14:29:55.745Z,98222.92
2018-05-01T14:32:23.255Z,98218.55
2018-05-01T14:34:50.736Z,98219.39
2018-05-01T14:37:21.330Z,98218.00
2018-05-01T14:39:52.393Z,98218.24
2018-05-01T14:42:20.235Z,98209.95
2018-05-01T14:44:47.764Z,98211.09
2018-05-01T14:47:15.243Z,98207.95
2018-05-01T14:49:46.250Z,98208.75
2018-05-01T14:52:17.041Z,98206.88
2018-05-01T14:54:44.702Z,98210.72
2018-05-01T14:57:15.767Z,98211.01
2018-05-01T14:59:43.227Z,98210.84
2018-05-01T15:02:10.723Z,98210.64
2018-05-01T15:04:38.179Z,98207.23
2018-05-01T15:07:05.759Z,98205.69
2018-05-01T15:09:33.222Z,98203.27
2018-05-01T15:12:00.694Z,98201.97
2018-05-01T15:14:28.660Z,98199.45
2018-05-01T15:16:56.565Z,98209.25
2018-05-01T15:19:24.137Z,98211.41
2018-05-01T15:21:51.554Z,98206.23
2018-05-01T15:24:19.046Z,98200.73
2018-05-01T15:26:46.498Z,98204.89
2018-05-01T15:29:14.066Z,98201.49
2018-05-01T15:31:41.523Z,98195.17
2018-05-01T15:34:09.002Z,98200.62
2018-05-01T15:36:36.478Z,98197.71
2018-05-01T15:39:03.987Z,98199.28
2018-05-01T15:41:31.449Z,98198.92
2018-05-01T15:43:58.955Z,98193.92
2018-05-01T15:46:26.422Z,98199.38
2018-05-01T15:48:53.906Z,98194.73
2018-05-01T15:51:21.387Z,98198.14
2018-05-01T15:53:48.874Z,98197.58
2018-05-01T15:56:16.363Z,98193.87
2018-05-01T15:58:43.857Z,98193.67
2018-05-01T16:01:11.323Z,98199.23
2018-05-01T16:03:38.813Z,98189.22
2018-05-01T16:06:06.278Z,98194.01
2018-05-01T16:08:33.760Z,98190.37
2018-05-01T16:11:01.296Z,98195.39
2018-05-01T16:13:28.818Z,98185.73
2018-05-01T16:15:56.286Z,98197.52
2018-05-01T16:18:23.787Z,98198.36
2018-05-01T16:20:51.241Z,98194.23
2018-05-01T16:23:18.726Z,98186.56
2018-05-01T16:25:46.182Z,98190.56
2018-05-01T16:28:13.782Z,98189.70
2018-05-01T16:30:41.246Z,98186.03
2018-05-01T16:33:08.738Z,98183.83
2018-05-01T16:35:36.219Z,98188.59
2018-05-01T16:38:03.786Z,98191.12
2018-05-01T16:40:31.258Z,98184.84
2018-05-01T16:42:58.763Z,98182.20
2018-05-01T16:45:26.242Z,98185.03
2018-05-01T16:47:53.713Z,98190.29
2018-05-01T16:50:21.209Z,98192.03
2018-05-01T16:52:48.719Z,98194.53
2018-05-01T16:55:16.209Z,98188.73
2018-05-01T16:57:43.714Z,98185.36
2018-05-01T17:00:11.238Z,98171.53
2018-05-01T17:02:38.722Z,98180.78
2018-05-01T17:05:06.207Z,98173.81
2018-05-01T17:07:33.682Z,98179.43
2018-05-01T17:10:01.190Z,98180.88
2018-05-01T17:12:28.675Z,98184.08
2018-05-01T17:14:56.224Z,98179.32
2018-05-01T17:17:23.687Z,98179.42
2018-05-01T17:19:51.181Z,98169.55
2018-05-01T17:22:18.636Z,98167.47
2018-05-01T17:24:46.115Z,98170.03
2018-05-01T17:27:13.718Z,98169.62
2018-05-01T17:29:41.214Z,98166.66
2018-05-01T17:32:08.670Z,98166.03
2018-05-01T17:34:36.173Z,98169.96
2018-05-01T17:37:03.638Z,98171.73
2018-05-01T17:39:32.086Z,98170.07
2018-05-01T17:41:59.739Z,98174.63
2018-05-01T17:44:27.270Z,98172.89
2018-05-01T17:46:54.743Z,98167.50
2018-05-01T17:49:22.234Z,98166.85
2018-05-01T17:51:49.706Z,98175.03
2018-05-01T17:54:17.193Z,98176.08
2018-05-01T17:56:44.694Z,98171.83
2018-05-01T17:59:12.243Z,98169.21
2018-05-01T18:01:39.716Z,98169.77
2018-05-01T18:04:07.212Z,98182.20
2018-05-01T18:06:34.676Z,98175.54
2018-05-01T18:09:02.220Z,98182.70
2018-05-01T18:11:29.694Z,98186.55
2018-05-01T18:13:57.198Z,98182.31
2018-05-01T18:16:24.671Z,98182.23
2018-05-01T18:18:52.154Z,98183.08
2018-05-01T18:21:20.009Z,98179.02
2018-05-01T18:23:47.567Z,98177.20
2018-05-01T18:26:15.073Z,98173.66
2018-05-01T18:28:42.560Z,98172.80
2018-05-01T18:31:10.050Z,98171.58
2018-05-01T18:33:37.563Z,98171.72
2018-05-01T18:36:05.020Z,98172.59
2018-05-01T18:38:32.528Z,98174.02
2018-05-01T18:41:00.075Z,98169.67
2018-05-01T18:43:27.567Z,98172.22
2018-05-01T18:45:55.055Z,98179.05
2018-05-01T18:48:22.546Z,98180.11
2018-05-01T18:50:51.779Z,98186.97
2018-05-01T18:53:19.329Z,98181.36
2018-05-01T18:55:46.966Z,98187.70
2018-05-01T18:58:14.466Z,98194.28
2018-05-01T19:00:41.956Z,98195.75
2018-05-01T19:03:09.416Z,98204.25
2018-05-01T19:05:37.868Z,98209.79
2018-05-01T19:08:05.332Z,98215.03
2018-05-01T19:10:32.827Z,98213.95
2018-05-01T19:13:00.306Z,98209.87
2018-05-01T19:15:27.892Z,98209.06
2018-05-01T19:17:55.830Z,98209.27
2018-05-01T19:20:23.330Z,98210.34
2018-05-01T19:22:50.794Z,98215.26
2018-05-01T19:25:18.289Z,98206.81
2018-05-01T19:27:45.750Z,98211.64
2018-05-01T19:30:13.260Z,98205.59
2018-05-01T19:32:40.739Z,98211.44
2018-05-01T19:35:08.226Z,98212.41
2018-05-01T19:37:35.694Z,98207.23
2018-05-01T19:40:03.202Z,98204.40
2018-05-01T19:42:30.667Z,98204.81
2018-05-01T19:44:58.168Z,98211.89
2018-05-01T19:47:25.656Z,98208.50
2018-05-01T19:49:53.129Z,98211.89
2018-05-01T19:52:20.638Z,98216.97
2018-05-01T19:54:48.106Z,98216.65
2018-05-01T19:57:15.603Z,98211.80
2018-05-01T19:59:43.063Z,98213.06
2018-05-01T20:02:10.615Z,98228.53
2018-05-01T20:04:38.056Z,98231.02
2018-05-01T20:07:05.547Z,98231.52
2018-05-01T20:09:33.015Z,98229.38
2018-05-01T20:12:00.509Z,98227.49
2018-05-01T20:14:27.985Z,98224.96
2018-05-01T20:16:55.466Z,98223.89
2018-05-01T20:19:23.120Z,98233.08
2018-05-01T20:21:50.623Z,98237.61
2018-05-01T20:24:18.120Z,98233.01
2018-05-01T20:26:45.640Z,98231.53
2018-05-01T20:29:13.131Z,98232.03
2018-05-01T20:31:40.635Z,98233.98
2018-05-01T20:34:08.107Z,98234.54
2018-05-01T20:36:36.566Z,98232.96
2018-05-01T20:39:04.103Z,98243.81
2018-05-01T20:41:31.595Z,98238.02
2018-05-01T20:43:59.054Z,98242.66
2018-05-01T20:46:26.538Z,98248.56
2018-05-01T20:48:54.005Z,98248.87
2018-05-01T20:51:21.475Z,98242.58
2018-05-01T20:53:49.010Z,98240.61
2018-05-01T20:56:16.506Z,98237.59
2018-05-01T20:58:44.007Z,98231.94
2018-05-01T21:01:11.466Z,98233.36
2018-05-01T21:03:38.970Z,98233.98
2018-05-01T21:06:06.442Z,98233.54
2018-05-01T21:08:33.926Z,98231.08
2018-05-01T21:11:01.390Z,98229.23
2018-05-01T21:13:28.919Z,98228.16
2018-05-01T21:15:56.400Z,98224.73
2018-05-01T21:18:23.886Z,98232.19
2018-05-01T21:20:51.363Z,98228.33
2018-05-01T21:23:18.846Z,98235.05
2018-05-01T21:25:46.310Z,98232.60
2018-05-01T21:28:14.462Z,98233.05
2018-05-01T21:30:41.930Z,98231.91
2018-05-01T21:33:09.410Z,98232.97
2018-05-01T21:35:36.885Z,98233.88
2018-05-01T21:38:04.366Z,98226.61
2018-05-01T21:40:31.833Z,98228.60
2018-05-01T21:42:59.408Z,98225.02
2018-05-01T21:45:26.826Z,98225.05
2018-05-01T21:47:54.323Z,98222.99
2018-05-01T21:50:21.857Z,98227.80
2018-05-01T21:52:49.359Z,98224.41
2018-05-01T21:55:17.795Z,98223.06
2018-05-01T21:57:45.284Z,98223.95
2018-05-01T22:00:12.749Z,98224.41
2018-05-01T22:02:40.226Z,98227.31
2018-05-01T22:05:07.690Z,98237.65
2018-05-01T22:07:35.175Z,98244.02
2018-05-01T22:10:02.735Z,98242.26
2018-05-01T22:12:30.125Z,98242.94
2018-05-01T22:14:57.587Z,98238.81
2018-05-01T22:17:25.071Z,98242.98
2018-05-01T22:19:52.536Z,98245.89
2018-05-01T22:22:20.018Z,98244.44
2018-05-01T22:24:47.471Z,98242.00
2018-05-01T22:27:14.972Z,98240.43
2018-05-01T22:29:42.425Z,98234.39
2018-05-01T22:32:09.907Z,98234.19
2018-05-01T22:34:37.366Z,98229.35
2018-05-01T22:37:04.850Z,98223.03
2018-05-01T22:39:32.310Z,98220.98
2018-05-01T22:41:59.833Z,98229.98
2018-05-01T22:44:27.310Z,98236.95
2018-05-01T22:46:54.774Z,98235.80
2018-05-01T22:49:22.260Z,98240.94
2018-05-01T22:51:49.713Z,98241.19
2018-05-01T22:54:17.191Z,98244.91
2018-05-01T22:56:44.647Z,98241.61
2018-05-01T22:59:12.121Z,98237.92
2018-05-01T23:01:39.590Z,98233.86
2018-05-01T23:04:07.075Z,98234.67
2018-05-01T23:06:34.546Z,98232.00
2018-05-01T23:09:02.024Z,98226.92
2018-05-01T23:11:29.484Z,98225.95
2018-05-01T23:13:56.958Z,98239.47
2018-05-01T23:16:24.414Z,98241.08
2018-05-01T23:18:51.893Z,98247.20
2018-05-01T23:21:19.350Z,98245.56
2018-05-01T23:23:46.827Z,98240.55
2018-05-01T23:26:14.382Z,98242.31
2018-05-01T23:28:41.859Z,98235.44
2018-05-01T23:31:09.316Z,98230.05
2018-05-01T23:33:36.800Z,98231.20
2018-05-01T23:36:04.254Z,98232.44
2018-05-01T23:38:31.725Z,98226.02
2018-05-01T23:40:59.182Z,98230.84
2018-05-01T23:43:26.639Z,98226.73
2018-05-01T23:45:54.122Z,98231.77
2018-05-01T23:48:21.579Z,98229.19
2018-05-01T23:50:49.054Z,98230.14
2018-05-01T23:53:16.551Z,98229.58
2018-05-01T23:55:44.134Z,98224.48
2018-05-01T23:58:11.597Z,98224.38
